createdAt,value
2023-03-16T08:22:57.231Z,30.70
2023-03-16T08:25:29.933Z,31.37
2023-03-16T08:28:10.588Z,29.97
2023-03-16T08:30:49.612Z,26.57
2023-03-16T08:33:41.894Z,35.27
2023-03-16T08:36:14.736Z,19.50
2023-03-16T08:39:03.819Z,27.47
2023-03-16T08:41:41.053Z,19.73
2023-03-16T08:44:19.374Z,24.77
2023-03-16T08:46:48.230Z,26.93
2023-03-16T08:49:23.673Z,26.83
2023-03-16T08:52:01.579Z,26.27
2023-03-16T08:54:32.563Z,17.60
2023-03-16T08:57:05.104Z,25.00
2023-03-16T08:59:34.472Z,28.67
2023-03-16T09:02:04.905Z,21.43
2023-03-16T09:04:33.902Z,25.33
2023-03-16T09:07:08.726Z,23.80
2023-03-16T09:09:40.211Z,24.40
2023-03-16T09:12:09.358Z,20.97
2023-03-16T09:14:38.729Z,20.37
2023-03-16T09:17:08.919Z,19.27
2023-03-16T09:19:56.291Z,12.87
2023-03-16T09:22:28.965Z,13.73
2023-03-16T09:25:01.575Z,13.97
2023-03-16T09:27:45.585Z,14.83
2023-03-16T09:30:15.440Z,16.30
2023-03-16T09:32:49.582Z,16.87
2023-03-16T09:35:35.023Z,16.87
2023-03-16T09:38:06.955Z,20.00
2023-03-16T09:40:40.955Z,19.63
2023-03-16T09:43:18.662Z,16.87
2023-03-16T09:45:52.719Z,16.47
2023-03-16T09:48:24.756Z,12.73
2023-03-16T09:50:56.572Z,11.10
2023-03-16T09:53:30.371Z,10.57
2023-03-16T09:56:04.990Z,8.93
2023-03-16T09:58:34.643Z,13.30
2023-03-16T10:01:12.415Z,8.63
2023-03-16T10:03:58.607Z,13.90
2023-03-16T10:06:32.149Z,8.93
2023-03-16T10:09:07.948Z,9.83
2023-03-16T10:11:52.233Z,10.10
2023-03-16T10:14:37.405Z,9.73
2023-03-16T10:17:09.679Z,9.40
2023-03-16T10:19:42.391Z,8.77
2023-03-16T10:22:19.898Z,10.53
2023-03-16T10:24:55.587Z,12.70
2023-03-16T10:27:44.318Z,13.98
2023-03-16T10:30:23.476Z,7.77
2023-03-16T10:32:52.719Z,9.40
2023-03-16T10:35:29.434Z,10.77
2023-03-16T10:38:01.431Z,8.35
2023-03-16T10:40:33.281Z,8.13
2023-03-16T10:43:10.615Z,6.15
2023-03-16T10:45:44.484Z,6.60
2023-03-16T10:48:19.786Z,9.73
2023-03-16T10:50:52.206Z,8.73
2023-03-16T10:53:23.791Z,8.30
2023-03-16T10:55:52.687Z,7.47
2023-03-16T10:58:27.540Z,7.13
2023-03-16T11:00:59.195Z,9.87
2023-03-16T11:03:29.433Z,10.27
2023-03-16T11:06:02.590Z,12.47
2023-03-16T11:08:35.930Z,10.33
2023-03-16T11:11:11.991Z,12.13
2023-03-16T11:13:46.278Z,17.13
2023-03-16T11:16:35.116Z,15.37
2023-03-16T11:19:07.405Z,13.87
2023-03-16T11:21:42.414Z,12.27
2023-03-16T11:24:18.017Z,10.73
2023-03-16T11:26:48.959Z,14.57
2023-03-16T11:29:23.889Z,14.70
2023-03-16T11:31:58.978Z,9.73
2023-03-16T11:34:29.679Z,14.73
2023-03-16T11:37:00.152Z,14.10
2023-03-16T11:39:44.190Z,13.63
2023-03-16T11:42:31.286Z,12.60
2023-03-16T11:45:10.321Z,17.47
2023-03-16T11:47:51.589Z,17.25
2023-03-16T11:50:25.710Z,16.17
2023-03-16T11:53:02.986Z,15.50
2023-03-16T11:55:37.981Z,12.73
2023-03-16T11:58:16.654Z,15.52
2023-03-16T12:00:52.432Z,14.23
2023-03-16T12:03:39.995Z,17.93
2023-03-16T12:06:23.556Z,9.90
2023-03-16T12:09:25.624Z,10.80
2023-03-16T12:12:00.773Z,12.57
2023-03-16T12:14:36.043Z,10.50
2023-03-16T12:17:11.925Z,12.80
2023-03-16T12:19:44.965Z,9.63
2023-03-16T12:22:20.053Z,12.05
2023-03-16T12:24:54.510Z,13.07
2023-03-16T12:27:26.977Z,10.73
2023-03-16T12:30:09.801Z,8.35
2023-03-16T12:32:43.747Z,11.50
2023-03-16T12:35:24.341Z,15.77
2023-03-16T12:38:00.154Z,12.55
2023-03-16T12:40:39.670Z,12.15
2023-03-16T12:43:14.859Z,17.13
2023-03-16T12:45:48.290Z,7.57
2023-03-16T12:48:24.612Z,14.88
2023-03-16T12:50:54.841Z,18.42
2023-03-16T12:53:30.591Z,11.90
2023-03-16T12:55:59.887Z,19.30
2023-03-16T12:58:29.034Z,10.98
2023-03-16T13:01:01.350Z,12.40
2023-03-16T13:03:31.474Z,16.60
2023-03-16T13:06:03.713Z,17.20
2023-03-16T13:08:46.640Z,14.48
2023-03-16T13:11:16.633Z,18.05
2023-03-16T13:13:53.140Z,53.08
2023-03-16T13:16:27.544Z,13.50
2023-03-16T13:18:56.722Z,19.38
2023-03-16T13:21:48.513Z,10.85
2023-03-16T13:24:30.776Z,14.63
2023-03-16T13:27:04.694Z,11.40
2023-03-16T13:29:37.124Z,15.00
2023-03-16T13:32:12.480Z,12.88
2023-03-16T13:34:49.512Z,14.10
2023-03-16T13:37:22.525Z,12.82
2023-03-16T13:40:11.504Z,12.32
2023-03-16T13:42:40.327Z,13.25
2023-03-16T13:45:15.452Z,16.38
2023-03-16T13:47:45.703Z,11.35
2023-03-16T13:50:16.734Z,16.00
2023-03-16T13:52:52.545Z,20.05
2023-03-16T13:55:28.333Z,11.40
2023-03-16T13:57:57.933Z,11.02
2023-03-16T14:00:29.274Z,8.27
2023-03-16T14:03:02.405Z,12.27
2023-03-16T14:05:35.310Z,10.60
2023-03-16T14:08:05.201Z,13.00
2023-03-16T14:10:40.629Z,12.40
2023-03-16T14:13:10.866Z,13.52
2023-03-16T14:15:42.385Z,10.63
2023-03-16T14:18:15.795Z,12.65
2023-03-16T14:20:46.530Z,13.38
2023-03-16T14:23:23.405Z,19.55
2023-03-16T14:25:55.024Z,9.18
2023-03-16T14:28:32.102Z,11.82
2023-03-16T14:31:06.422Z,13.75
2023-03-16T14:33:42.547Z,17.73
2023-03-16T14:36:16.154Z,13.10
2023-03-16T14:38:50.622Z,12.90
2023-03-16T14:41:28.630Z,14.23
2023-03-16T14:44:11.583Z,19.53
2023-03-16T14:46:41.837Z,11.97
2023-03-16T14:49:11.904Z,12.07
2023-03-16T14:51:43.052Z,8.13
2023-03-16T14:54:15.026Z,15.50
2023-03-16T14:56:58.089Z,10.77
2023-03-16T14:59:31.359Z,10.20
2023-03-16T15:02:03.594Z,10.00
2023-03-16T15:04:38.345Z,12.50
2023-03-16T15:07:15.459Z,7.63
2023-03-16T15:09:44.987Z,12.10
2023-03-16T15:12:18.145Z,15.00
2023-03-16T15:15:05.584Z,9.77
2023-03-16T15:17:34.991Z,11.18
2023-03-16T15:20:09.095Z,5.57
2023-03-16T15:22:39.564Z,10.50
2023-03-16T15:25:37.335Z,10.53
2023-03-16T15:28:12.975Z,10.10
2023-03-16T15:30:42.712Z,6.53
2023-03-16T15:33:13.154Z,9.30
2023-03-16T15:35:44.257Z,10.43
2023-03-16T15:38:20.832Z,10.77
2023-03-16T15:40:53.365Z,9.90
2023-03-16T15:43:27.868Z,12.47
2023-03-16T15:45:59.800Z,6.53
2023-03-16T15:48:29.047Z,9.60
2023-03-16T15:50:59.277Z,10.50
2023-03-16T15:56:13.834Z,8.83
2023-03-16T15:58:48.611Z,9.43
2023-03-16T16:01:24.835Z,7.47
2023-03-16T16:03:59.485Z,5.73
2023-03-16T16:06:31.247Z,8.10
2023-03-16T16:09:03.381Z,7.20
2023-03-16T16:11:35.753Z,9.03
2023-03-16T16:14:07.741Z,8.20
2023-03-16T16:16:39.338Z,8.10
2023-03-16T16:19:14.380Z,4.83
2023-03-16T16:21:45.112Z,4.97
2023-03-16T16:24:14.324Z,8.93
2023-03-16T16:26:54.091Z,10.57
2023-03-16T16:29:30.183Z,13.80
2023-03-16T16:31:59.461Z,6.23
2023-03-16T16:34:32.983Z,9.27
2023-03-16T16:37:02.181Z,8.50
2023-03-16T16:39:32.379Z,5.17
2023-03-16T16:42:05.025Z,6.90
2023-03-16T16:44:38.170Z,6.83
2023-03-16T16:47:08.793Z,10.57
2023-03-16T16:49:38.888Z,8.70
2023-03-16T16:52:09.260Z,4.27
2023-03-16T16:54:38.932Z,8.37
2023-03-16T16:57:09.299Z,10.60
2023-03-16T16:59:43.673Z,9.77
2023-03-16T17:02:25.880Z,9.43
2023-03-16T17:04:58.285Z,8.40
2023-03-16T17:07:28.565Z,8.93
2023-03-16T17:09:58.857Z,6.90
2023-03-16T17:12:33.818Z,8.27
2023-03-16T17:15:15.983Z,7.00
2023-03-16T17:17:46.090Z,12.47
2023-03-16T17:20:17.068Z,9.97
2023-03-16T17:22:48.240Z,12.50
2023-03-16T17:25:18.871Z,11.77
2023-03-16T17:27:49.073Z,9.00
2023-03-16T17:30:32.317Z,11.87
2023-03-16T17:33:03.571Z,14.43
2023-03-16T17:35:36.353Z,12.07
2023-03-16T17:38:06.001Z,15.70
2023-03-16T17:40:43.509Z,9.30
2023-03-16T17:43:16.941Z,14.70
2023-03-16T17:45:54.697Z,9.67
2023-03-16T17:48:26.472Z,10.63
2023-03-16T17:50:56.993Z,8.97
2023-03-16T17:53:29.461Z,13.40
2023-03-16T17:56:02.466Z,16.07
2023-03-16T17:58:32.858Z,15.90
2023-03-16T18:01:07.030Z,14.27
2023-03-16T18:03:39.528Z,16.93
2023-03-16T18:06:23.407Z,11.37
2023-03-16T18:08:57.328Z,19.87
2023-03-16T18:11:35.303Z,13.37
2023-03-16T18:14:11.877Z,14.77
2023-03-16T18:16:46.050Z,14.33
2023-03-16T18:19:28.910Z,12.03
2023-03-16T18:22:00.165Z,12.60
2023-03-16T18:24:49.760Z,13.53
2023-03-16T18:27:19.883Z,11.80
2023-03-16T18:29:54.341Z,13.13
2023-03-16T18:35:39.732Z,13.00
2023-03-16T18:38:15.119Z,22.60
2023-03-16T18:40:44.464Z,14.70
2023-03-16T18:43:18.395Z,18.43
2023-03-16T18:45:54.388Z,17.67
2023-03-16T18:48:31.899Z,15.10
2023-03-16T18:51:01.462Z,20.03
2023-03-16T18:53:30.540Z,19.27
2023-03-16T18:56:01.582Z,19.90
2023-03-16T18:58:31.851Z,19.20
2023-03-16T19:01:02.894Z,21.40
2023-03-16T19:03:38.516Z,17.67
2023-03-16T19:06:08.863Z,18.13
2023-03-16T19:08:56.537Z,19.03
2023-03-16T19:11:28.012Z,19.73
2023-03-16T19:14:00.226Z,17.30
2023-03-16T19:16:30.990Z,19.93
2023-03-16T19:19:04.327Z,17.70
2023-03-16T19:21:33.721Z,16.43
2023-03-16T19:24:06.635Z,16.83
2023-03-16T19:26:40.128Z,20.40
2023-03-16T19:29:10.556Z,17.37
2023-03-16T19:31:45.899Z,14.07
2023-03-16T19:34:21.922Z,20.83
2023-03-16T19:36:53.332Z,21.73
2023-03-16T19:39:23.206Z,21.87
2023-03-16T19:42:09.956Z,22.50
2023-03-16T19:44:52.091Z,26.83
2023-03-16T19:47:31.121Z,37.80
2023-03-16T19:50:23.518Z,38.43
2023-03-16T19:52:55.514Z,41.23
2023-03-16T19:55:38.557Z,44.33
2023-03-16T19:58:15.721Z,39.83
2023-03-16T20:01:03.804Z,45.60
2023-03-16T20:03:49.213Z,39.03
2023-03-16T20:06:27.633Z,44.83
2023-03-16T20:08:56.899Z,45.77
2023-03-16T20:11:34.530Z,40.90
2023-03-16T20:14:17.380Z,40.10
2023-03-16T20:16:49.419Z,39.47
2023-03-16T20:19:26.578Z,38.63
2023-03-16T20:21:59.079Z,40.27
2023-03-16T20:24:29.513Z,44.27
2023-03-16T20:27:03.072Z,33.90
2023-03-16T20:29:33.685Z,34.00
2023-03-16T20:32:08.310Z,36.63
2023-03-16T20:34:45.132Z,33.97
2023-03-16T20:37:29.776Z,37.37
2023-03-16T20:40:21.084Z,31.17
2023-03-16T20:43:06.247Z,35.87
2023-03-16T20:45:40.217Z,33.33
2023-03-16T20:48:16.266Z,32.27
2023-03-16T20:51:08.496Z,39.43
2023-03-16T20:53:40.147Z,31.93
2023-03-16T20:56:20.297Z,35.07
2023-03-16T20:58:50.752Z,30.37
2023-03-16T21:01:26.638Z,39.27
2023-03-16T21:04:00.423Z,33.47
2023-03-16T21:06:30.303Z,29.00
2023-03-16T21:09:03.877Z,31.43
2023-03-16T21:12:02.576Z,36.30
2023-03-16T21:14:47.280Z,29.47
2023-03-16T21:17:24.075Z,37.80
2023-03-16T21:20:03.991Z,35.23
2023-03-16T21:22:38.003Z,32.37
2023-03-16T21:25:24.351Z,30.80
2023-03-16T21:27:57.384Z,34.20
2023-03-16T21:30:31.004Z,33.33
2023-03-16T21:33:02.978Z,35.57
2023-03-16T21:35:36.779Z,31.83
2023-03-16T21:38:19.724Z,31.80
2023-03-16T21:40:50.340Z,29.40
2023-03-16T21:43:21.638Z,34.70
2023-03-16T21:45:57.188Z,29.93
2023-03-16T21:48:29.299Z,32.03
2023-03-16T21:51:08.619Z,34.80
2023-03-16T21:53:38.640Z,30.90
2023-03-16T21:56:09.008Z,34.10
2023-03-16T21:58:37.954Z,38.00
2023-03-16T22:01:08.142Z,33.43
2023-03-16T22:03:51.037Z,30.47
2023-03-16T22:06:33.199Z,31.67
2023-03-16T22:09:05.274Z,35.87
2023-03-16T22:11:42.250Z,34.53
2023-03-16T22:14:11.479Z,37.20
2023-03-16T22:16:42.850Z,37.13
2023-03-16T22:19:19.759Z,34.60
2023-03-16T22:21:52.245Z,35.80
2023-03-16T22:24:22.340Z,36.13
2023-03-16T22:26:55.863Z,34.80
2023-03-16T22:29:41.862Z,38.70
2023-03-16T22:32:17.135Z,38.10
2023-03-16T22:34:48.790Z,38.60
2023-03-16T22:37:21.247Z,38.97
2023-03-16T22:39:57.306Z,38.70
2023-03-16T22:42:30.554Z,43.90
2023-03-16T22:44:59.932Z,37.77
2023-03-16T22:47:32.462Z,44.93
2023-03-16T22:50:01.429Z,40.13
2023-03-16T22:52:31.649Z,47.60
2023-03-16T22:55:00.750Z,41.27
2023-03-16T22:57:34.285Z,49.73
2023-03-16T23:00:07.386Z,44.10
2023-03-16T23:02:39.990Z,47.90
2023-03-16T23:05:21.196Z,48.10
2023-03-16T23:07:51.105Z,53.57
2023-03-16T23:10:20.449Z,50.60
2023-03-16T23:12:51.111Z,52.07
2023-03-16T23:15:22.005Z,55.57
2023-03-16T23:17:51.207Z,46.67
2023-03-16T23:20:30.157Z,55.83
2023-03-16T23:22:59.003Z,44.60
2023-03-16T23:25:27.718Z,51.87
2023-03-16T23:27:57.893Z,55.67
2023-03-16T23:30:27.542Z,52.90
2023-03-16T23:32:56.896Z,50.67
2023-03-16T23:35:30.266Z,52.07
2023-03-16T23:37:59.493Z,49.53
2023-03-16T23:40:29.404Z,47.87
2023-03-16T23:43:00.787Z,49.10
2023-03-16T23:45:34.247Z,47.40
2023-03-16T23:48:04.677Z,43.17
2023-03-16T23:50:36.641Z,52.43
2023-03-16T23:53:12.561Z,41.80
2023-03-16T23:55:41.856Z,43.90
2023-03-16T23:58:11.811Z,45.70
